createdAt,value
2018-03-26T00:01:45.373Z,22.40
2018-03-26T00:04:14.248Z,14.77
2018-03-26T00:06:43.302Z,26.27
2018-03-26T00:09:12.312Z,21.87
2018-03-26T00:11:41.249Z,21.80
2018-03-26T00:14:10.173Z,20.67
2018-03-26T00:16:40.339Z,17.77
2018-03-26T00:19:09.226Z,29.63
2018-03-26T00:21:38.125Z,19.13
2018-03-26T00:24:07.017Z,22.40
2018-03-26T00:26:35.774Z,22.33
2018-03-26T00:29:05.000Z,20.00
2018-03-26T00:31:33.840Z,19.67
2018-03-26T00:34:03.496Z,20.70
2018-03-26T00:36:32.253Z,16.70
2018-03-26T00:39:02.017Z,18.27
2018-03-26T00:41:31.703Z,16.70
2018-03-26T00:44:00.683Z,16.20
2018-03-26T00:46:29.609Z,20.83
2018-03-26T00:48:59.680Z,13.50
2018-03-26T00:51:28.962Z,22.43
2018-03-26T00:53:57.811Z,15.40
2018-03-26T00:56:26.679Z,19.23
2018-03-26T00:58:55.558Z,20.00
2018-03-26T01:01:24.464Z,20.53
2018-03-26T01:03:53.376Z,16.10
2018-03-26T01:06:22.206Z,15.77
2018-03-26T01:08:51.137Z,14.00
2018-03-26T01:11:20.016Z,11.63
2018-03-26T01:13:49.089Z,19.93
2018-03-26T01:16:17.917Z,20.57
2018-03-26T01:18:46.881Z,17.87
2018-03-26T01:21:15.748Z,14.27
2018-03-26T01:23:45.041Z,22.50
2018-03-26T01:26:13.877Z,18.97
2018-03-26T01:28:43.466Z,17.37
2018-03-26T01:31:12.456Z,19.90
2018-03-26T01:33:41.439Z,20.93
2018-03-26T01:36:11.127Z,24.97
2018-03-26T01:38:40.826Z,21.60
2018-03-26T01:41:09.740Z,20.60
2018-03-26T01:43:38.456Z,17.03
2018-03-26T01:46:07.502Z,23.03
2018-03-26T01:48:36.569Z,18.13
2018-03-26T01:51:05.460Z,20.23
2018-03-26T01:53:34.378Z,19.90
2018-03-26T01:56:03.507Z,16.17
2018-03-26T01:58:32.594Z,28.73
2018-03-26T02:01:01.494Z,22.57
2018-03-26T02:03:31.146Z,27.83
2018-03-26T02:06:00.005Z,29.10
2018-03-26T02:08:28.930Z,26.27
2018-03-26T02:10:57.867Z,20.63
2018-03-26T02:13:26.697Z,28.13
2018-03-26T02:15:55.492Z,18.57
2018-03-26T02:18:24.343Z,27.57
2018-03-26T02:20:53.970Z,27.63
2018-03-26T02:23:22.846Z,24.20
2018-03-26T02:25:51.972Z,26.47
2018-03-26T02:28:21.181Z,35.07
2018-03-26T02:30:51.025Z,24.07
2018-03-26T02:33:19.862Z,23.87
2018-03-26T02:35:48.823Z,25.30
2018-03-26T02:38:17.643Z,24.30
2018-03-26T02:40:46.734Z,30.33
2018-03-26T02:43:15.728Z,28.87
2018-03-26T02:45:44.558Z,29.23
2018-03-26T02:48:13.349Z,20.67
2018-03-26T02:50:42.233Z,27.37
2018-03-26T02:53:11.166Z,24.37
2018-03-26T02:55:40.762Z,22.80
2018-03-26T02:58:09.616Z,28.10
2018-03-26T03:00:38.508Z,20.00
2018-03-26T03:03:07.396Z,20.60
2018-03-26T03:05:36.248Z,20.77
2018-03-26T03:08:05.117Z,22.73
2018-03-26T03:10:34.073Z,24.93
2018-03-26T03:13:02.899Z,19.67
2018-03-26T03:15:31.688Z,30.80
2018-03-26T03:18:01.372Z,26.80
2018-03-26T03:20:30.337Z,22.43
2018-03-26T03:22:59.404Z,25.60
2018-03-26T03:25:29.298Z,24.80
2018-03-26T03:27:58.207Z,24.47
2018-03-26T03:30:28.205Z,27.97
2018-03-26T03:32:57.075Z,27.13
2018-03-26T03:35:26.021Z,27.63
2018-03-26T03:37:55.189Z,20.67
2018-03-26T03:40:24.183Z,23.70
2018-03-26T03:42:53.139Z,34.47
2018-03-26T03:45:22.799Z,26.63
2018-03-26T03:47:51.669Z,25.40
2018-03-26T03:50:20.932Z,49.83
2018-03-26T03:52:49.911Z,40.37
2018-03-26T03:55:19.447Z,36.70
2018-03-26T03:57:48.563Z,26.33
2018-03-26T04:00:18.252Z,39.97
2018-03-26T04:02:47.147Z,26.17
2018-03-26T04:05:16.003Z,34.37
2018-03-26T04:07:44.916Z,39.17
2018-03-26T04:10:13.791Z,33.90
2018-03-26T04:12:42.777Z,37.17
2018-03-26T04:15:11.750Z,47.37
2018-03-26T04:17:41.674Z,28.97
2018-03-26T04:20:10.708Z,27.53
2018-03-26T04:22:39.473Z,27.00
2018-03-26T04:25:09.227Z,36.43
2018-03-26T04:27:38.810Z,35.03
2018-03-26T04:30:07.788Z,27.50
2018-03-26T04:32:36.626Z,32.23
2018-03-26T04:35:06.222Z,32.67
2018-03-26T04:37:35.012Z,26.43
2018-03-26T04:40:03.850Z,32.77
2018-03-26T04:42:32.942Z,40.43
2018-03-26T04:45:01.939Z,33.93
2018-03-26T04:47:30.994Z,41.50
2018-03-26T04:49:59.863Z,35.97
2018-03-26T04:52:29.559Z,25.70
2018-03-26T04:54:58.452Z,38.07
2018-03-26T04:57:27.444Z,33.40
2018-03-26T04:59:56.410Z,33.77
2018-03-26T05:02:25.200Z,58.13
2018-03-26T05:04:55.037Z,42.97
2018-03-26T05:07:23.895Z,37.40
2018-03-26T05:09:52.643Z,37.33
2018-03-26T05:12:21.622Z,35.13
2018-03-26T05:14:50.495Z,43.60
2018-03-26T05:17:19.348Z,40.20
2018-03-26T05:19:48.351Z,42.03
2018-03-26T05:22:17.273Z,50.87
2018-03-26T05:24:46.142Z,70.27
2018-03-26T05:27:15.188Z,60.30
2018-03-26T05:29:44.088Z,63.67
2018-03-26T05:32:12.977Z,68.83
2018-03-26T05:34:42.521Z,70.27
2018-03-26T05:37:11.476Z,65.07
2018-03-26T05:39:40.367Z,78.53
2018-03-26T05:42:10.021Z,67.17
2018-03-26T05:44:38.888Z,76.77
2018-03-26T05:47:08.520Z,54.33
2018-03-26T05:49:37.414Z,64.77
2018-03-26T05:52:06.528Z,72.40
2018-03-26T05:54:35.640Z,71.23
2018-03-26T05:57:04.430Z,73.50
2018-03-26T05:59:34.300Z,62.23
2018-03-26T06:02:03.234Z,89.57
2018-03-26T06:04:32.206Z,81.03
2018-03-26T06:07:01.221Z,91.63
2018-03-26T06:09:30.274Z,88.60
2018-03-26T06:11:59.270Z,85.87
2018-03-26T06:14:28.058Z,69.40
2018-03-26T06:17:08.612Z,98.20
2018-03-26T06:19:37.859Z,109.37
2018-03-26T06:22:07.016Z,104.70
2018-03-26T06:24:35.961Z,195.80
2018-03-26T06:27:05.697Z,114.90
2018-03-26T06:29:35.748Z,129.40
2018-03-26T06:32:04.783Z,126.30
2018-03-26T06:34:33.758Z,101.27
2018-03-26T06:37:18.397Z,112.33
2018-03-26T06:39:48.219Z,105.47
2018-03-26T06:42:17.342Z,100.63
2018-03-26T06:44:46.378Z,101.30
2018-03-26T06:47:15.420Z,97.10
2018-03-26T06:49:44.272Z,97.50
2018-03-26T06:52:13.233Z,97.13
2018-03-26T06:54:42.165Z,98.77
2018-03-26T06:57:11.060Z,92.47
2018-03-26T06:59:40.109Z,89.17
2018-03-26T07:02:08.884Z,104.83
2018-03-26T07:04:38.805Z,101.17
2018-03-26T07:07:08.396Z,96.07
2018-03-26T07:09:37.434Z,84.33
2018-03-26T07:12:06.568Z,91.87
2018-03-26T07:14:35.629Z,92.43
2018-03-26T07:17:05.485Z,101.70
2018-03-26T07:19:34.289Z,103.70
2018-03-26T07:22:03.868Z,92.80
2018-03-26T07:24:32.612Z,78.47
2018-03-26T07:27:01.502Z,91.73
2018-03-26T07:29:30.350Z,97.10
2018-03-26T07:32:00.263Z,126.90
2018-03-26T07:34:29.257Z,115.73
2018-03-26T07:36:58.970Z,100.80
2018-03-26T07:39:27.828Z,93.43
2018-03-26T07:41:56.716Z,100.77
2018-03-26T07:44:25.756Z,165.40
2018-03-26T07:46:54.804Z,92.77
2018-03-26T07:49:23.814Z,110.43
2018-03-26T07:51:52.754Z,105.93
2018-03-26T07:54:21.665Z,131.10
2018-03-26T07:56:50.447Z,106.93
2018-03-26T07:59:19.412Z,97.43
2018-03-26T08:01:48.620Z,88.17
2018-03-26T08:04:18.212Z,122.67
2018-03-26T08:06:47.872Z,97.07
2018-03-26T08:09:16.726Z,103.77
2018-03-26T08:11:46.656Z,89.70
2018-03-26T08:14:15.654Z,74.77
2018-03-26T08:16:44.534Z,119.33
2018-03-26T08:19:13.660Z,106.43
2018-03-26T08:21:42.665Z,86.63
2018-03-26T08:24:11.564Z,79.83
2018-03-26T08:26:40.811Z,91.87
2018-03-26T08:29:10.495Z,102.73
2018-03-26T08:31:40.115Z,73.73
2018-03-26T08:34:10.994Z,98.87
2018-03-26T08:36:40.573Z,137.63
2018-03-26T08:39:09.434Z,91.07
2018-03-26T08:41:38.421Z,106.83
2018-03-26T08:44:07.613Z,46.67
2018-03-26T08:46:43.817Z,41.90
2018-03-26T08:49:12.748Z,46.03
2018-03-26T08:51:41.696Z,65.37
2018-03-26T08:54:10.569Z,37.57
2018-03-26T08:56:39.445Z,61.80
2018-03-26T08:59:08.237Z,32.47
2018-03-26T09:01:37.990Z,36.83
2018-03-26T09:04:06.953Z,53.83
2018-03-26T09:06:35.894Z,47.33
2018-03-26T09:09:04.885Z,39.60
2018-03-26T09:11:33.863Z,38.97
2018-03-26T09:14:03.171Z,42.07
2018-03-26T09:16:32.103Z,34.57
2018-03-26T09:19:01.284Z,43.90
2018-03-26T09:21:30.588Z,39.13
2018-03-26T09:23:59.458Z,40.13
2018-03-26T09:26:34.636Z,37.07
2018-03-26T09:29:03.937Z,48.97
2018-03-26T09:31:32.968Z,40.80
2018-03-26T09:34:01.777Z,34.97
2018-03-26T09:36:30.760Z,44.17
2018-03-26T09:38:59.704Z,34.23
2018-03-26T09:41:29.507Z,47.73
2018-03-26T09:43:59.438Z,60.87
2018-03-26T09:46:28.990Z,35.13
2018-03-26T09:48:57.997Z,46.43
2018-03-26T09:51:26.833Z,34.60
2018-03-26T09:53:56.529Z,35.47
2018-03-26T09:56:26.077Z,46.07
2018-03-26T09:58:54.880Z,39.83
2018-03-26T10:01:23.954Z,40.70
2018-03-26T10:03:53.078Z,38.17
2018-03-26T10:06:21.967Z,41.13
2018-03-26T10:08:50.898Z,42.23
2018-03-26T10:11:20.756Z,39.77
2018-03-26T10:13:49.570Z,41.90
2018-03-26T10:16:18.399Z,42.73
2018-03-26T10:18:48.065Z,46.23
2018-03-26T10:21:16.882Z,36.07
2018-03-26T10:23:46.566Z,28.70
2018-03-26T10:26:15.892Z,36.00
2018-03-26T10:28:45.175Z,39.17
2018-03-26T10:31:14.055Z,52.77
2018-03-26T10:33:43.025Z,42.10
2018-03-26T10:36:11.852Z,49.57
2018-03-26T10:38:40.704Z,35.83
2018-03-26T10:41:09.578Z,35.90
2018-03-26T10:43:39.132Z,49.93
2018-03-26T10:46:08.041Z,40.67
2018-03-26T10:48:37.186Z,34.87
2018-03-26T10:51:06.460Z,33.83
2018-03-26T10:53:36.300Z,32.93
2018-03-26T10:56:05.119Z,37.33
2018-03-26T10:58:34.055Z,33.80
2018-03-26T11:01:03.709Z,44.07
2018-03-26T11:03:32.495Z,41.27
2018-03-26T11:06:01.335Z,39.27
2018-03-26T11:08:30.490Z,35.80
2018-03-26T11:10:59.477Z,50.17
2018-03-26T11:13:28.296Z,50.00
2018-03-26T11:15:59.172Z,54.30
2018-03-26T11:18:28.126Z,51.97
2018-03-26T11:20:56.995Z,32.60
2018-03-26T11:23:25.939Z,58.97
2018-03-26T11:25:55.532Z,45.47
2018-03-26T11:28:25.128Z,35.23
2018-03-26T11:30:54.696Z,46.77
2018-03-26T11:33:24.312Z,38.03
2018-03-26T11:35:53.530Z,48.40
2018-03-26T11:38:22.322Z,48.10
2018-03-26T11:40:51.244Z,45.33
2018-03-26T11:43:20.107Z,33.47
2018-03-26T11:45:49.779Z,46.70
2018-03-26T11:48:18.616Z,49.57
2018-03-26T11:50:48.396Z,44.80
2018-03-26T11:53:17.286Z,46.17
2018-03-26T11:55:47.154Z,41.97
2018-03-26T11:58:16.035Z,46.77
2018-03-26T12:00:46.176Z,38.83
2018-03-26T12:03:15.221Z,43.50
2018-03-26T12:05:44.905Z,41.23
2018-03-26T12:08:13.799Z,36.90
2018-03-26T12:10:42.600Z,43.57
2018-03-26T12:13:11.428Z,56.90
2018-03-26T12:15:40.215Z,52.20
2018-03-26T12:18:09.257Z,40.90
2018-03-26T12:20:50.073Z,36.53
2018-03-26T12:23:31.480Z,38.53
2018-03-26T12:26:01.663Z,44.90
2018-03-26T12:28:42.548Z,38.10
2018-03-26T12:31:12.075Z,39.73
2018-03-26T12:33:52.541Z,37.30
2018-03-26T12:36:22.465Z,36.73
2018-03-26T12:38:51.284Z,34.30
2018-03-26T12:41:20.477Z,38.37
2018-03-26T12:43:49.349Z,37.23
2018-03-26T12:46:30.492Z,32.13
2018-03-26T12:48:59.304Z,52.47
2018-03-26T12:51:40.024Z,41.37
2018-03-26T12:54:09.940Z,32.00
2018-03-26T12:56:39.593Z,38.47
2018-03-26T12:59:08.685Z,35.30
2018-03-26T13:01:53.031Z,46.67
2018-03-26T13:04:24.163Z,29.97
2018-03-26T13:06:53.957Z,44.00
2018-03-26T13:09:24.086Z,31.57
2018-03-26T13:11:54.010Z,33.40
2018-03-26T13:14:25.096Z,50.20
2018-03-26T13:16:55.789Z,43.03
2018-03-26T13:19:28.053Z,40.60
2018-03-26T13:21:58.970Z,40.93
2018-03-26T13:24:29.957Z,55.30
2018-03-26T13:26:58.792Z,59.27
2018-03-26T13:29:29.890Z,53.63
2018-03-26T13:31:59.656Z,66.37
2018-03-26T13:34:30.453Z,56.90
2018-03-26T13:37:01.225Z,45.13
2018-03-26T13:39:31.506Z,46.17
2018-03-26T13:42:01.562Z,56.93
2018-03-26T13:44:32.243Z,38.90
2018-03-26T13:47:01.094Z,43.13
2018-03-26T13:49:33.400Z,22.10
2018-03-26T13:52:06.300Z,48.57
2018-03-26T13:54:37.553Z,53.77
2018-03-26T13:57:08.329Z,43.33
2018-03-26T13:59:39.155Z,40.63
2018-03-26T14:02:09.298Z,40.73
2018-03-26T14:04:40.781Z,35.23
2018-03-26T14:07:11.443Z,39.90
2018-03-26T14:09:57.613Z,48.47
2018-03-26T14:12:38.968Z,40.73
2018-03-26T14:15:21.406Z,47.60
2018-03-26T14:18:08.959Z,62.17
2018-03-26T14:20:39.856Z,50.70
2018-03-26T14:23:10.408Z,58.97
2018-03-26T14:25:41.299Z,64.00
2018-03-26T14:28:11.404Z,65.40
2018-03-26T14:30:40.884Z,57.53
2018-03-26T14:33:10.667Z,24.97
2018-03-26T14:35:43.868Z,50.80
2018-03-26T14:38:13.758Z,43.83
2018-03-26T14:40:42.670Z,61.53
2018-03-26T14:43:12.597Z,66.53
2018-03-26T14:45:41.524Z,68.03
2018-03-26T14:48:15.922Z,103.90
2018-03-26T14:50:47.368Z,76.07
2018-03-26T14:53:17.594Z,75.23
2018-03-26T14:55:47.737Z,114.30
2018-03-26T14:58:17.111Z,161.67
2018-03-26T15:00:46.928Z,155.43
2018-03-26T15:03:17.352Z,205.57
2018-03-26T15:05:47.339Z,87.30
2018-03-26T15:08:17.089Z,70.93
2018-03-26T15:10:46.334Z,103.23
2018-03-26T15:13:15.625Z,80.07
2018-03-26T15:15:44.542Z,90.50
2018-03-26T15:18:13.395Z,71.40
2018-03-26T15:20:42.990Z,51.53
2018-03-26T15:23:12.517Z,47.53
2018-03-26T15:25:41.327Z,47.20
2018-03-26T15:28:10.271Z,47.73
2018-03-26T15:30:39.322Z,54.40
2018-03-26T15:33:08.216Z,47.77
2018-03-26T15:35:37.124Z,44.77
2018-03-26T15:38:07.072Z,40.90
2018-03-26T15:40:35.887Z,47.97
2018-03-26T15:43:04.856Z,45.90
2018-03-26T15:45:33.722Z,71.30
2018-03-26T15:48:02.998Z,90.80
2018-03-26T15:50:32.303Z,56.50
2018-03-26T15:53:01.292Z,53.60
2018-03-26T15:55:30.327Z,53.83
2018-03-26T15:57:59.570Z,226.57
2018-03-26T16:00:28.778Z,164.90
2018-03-26T16:03:03.114Z,78.30
2018-03-26T16:05:32.040Z,73.63
2018-03-26T16:08:01.659Z,58.17
2018-03-26T16:10:31.252Z,60.83
2018-03-26T16:13:00.973Z,49.57
2018-03-26T16:15:30.674Z,62.33
2018-03-26T16:18:00.289Z,33.33
2018-03-26T16:20:29.885Z,46.90
2018-03-26T16:22:59.874Z,46.83
2018-03-26T16:25:28.700Z,46.47
2018-03-26T16:27:57.605Z,53.40
2018-03-26T16:30:27.204Z,46.10
2018-03-26T16:32:56.089Z,40.67
2018-03-26T16:35:25.914Z,35.87
2018-03-26T16:37:56.087Z,36.53
2018-03-26T16:40:25.012Z,64.33
2018-03-26T16:42:54.268Z,47.93
2018-03-26T16:45:24.011Z,75.50
2018-03-26T16:47:53.843Z,45.97
2018-03-26T16:50:23.805Z,45.27
2018-03-26T16:52:52.898Z,54.70
2018-03-26T16:55:21.835Z,71.90
2018-03-26T16:57:51.029Z,57.63
2018-03-26T17:00:19.910Z,60.47
2018-03-26T17:02:48.891Z,65.67
2018-03-26T17:05:18.712Z,65.93
2018-03-26T17:07:47.589Z,47.97
2018-03-26T17:10:16.432Z,50.47
2018-03-26T17:12:45.346Z,58.20
2018-03-26T17:15:14.336Z,70.63
2018-03-26T17:17:43.274Z,63.20
2018-03-26T17:20:12.270Z,62.83
2018-03-26T17:22:41.083Z,65.70
2018-03-26T17:25:13.657Z,47.57
2018-03-26T17:27:42.646Z,61.23
2018-03-26T17:30:11.557Z,54.30
2018-03-26T17:32:40.426Z,54.87
2018-03-26T17:35:10.031Z,47.80
2018-03-26T17:37:38.865Z,31.83
2018-03-26T17:40:07.825Z,44.57
2018-03-26T17:42:37.537Z,36.43
2018-03-26T17:45:06.464Z,30.27
2018-03-26T17:47:35.407Z,35.37
2018-03-26T17:50:04.554Z,35.03
2018-03-26T17:52:33.799Z,45.57
2018-03-26T17:55:02.577Z,32.90
2018-03-26T17:57:31.536Z,35.90
2018-03-26T18:00:00.438Z,41.07
2018-03-26T18:02:30.576Z,31.53
2018-03-26T18:04:59.613Z,31.47
2018-03-26T18:07:28.475Z,33.47
2018-03-26T18:09:57.360Z,31.47
2018-03-26T18:12:26.315Z,33.80
2018-03-26T18:14:56.494Z,48.30
2018-03-26T18:17:28.706Z,34.00
2018-03-26T18:19:57.847Z,32.83
2018-03-26T18:22:27.450Z,31.63
2018-03-26T18:24:56.859Z,29.30
2018-03-26T18:27:26.290Z,31.60
2018-03-26T18:29:56.162Z,26.20
2018-03-26T18:32:25.846Z,37.90
2018-03-26T18:34:56.070Z,39.03
2018-03-26T18:37:25.203Z,35.57
2018-03-26T18:39:54.451Z,35.23
2018-03-26T18:42:23.949Z,30.43
2018-03-26T18:44:53.576Z,46.27
2018-03-26T18:47:23.229Z,33.20
2018-03-26T18:49:52.512Z,34.90
2018-03-26T18:52:22.968Z,33.73
2018-03-26T18:54:53.882Z,36.53
2018-03-26T18:57:23.084Z,36.07
2018-03-26T18:59:52.560Z,30.20
2018-03-26T19:02:22.283Z,32.83
2018-03-26T19:04:52.291Z,28.63
2018-03-26T19:07:21.707Z,26.80
2018-03-26T19:09:51.642Z,27.20
2018-03-26T19:12:21.132Z,31.20
2018-03-26T19:14:51.699Z,35.40
2018-03-26T19:17:22.036Z,31.33
2018-03-26T19:19:51.153Z,39.73
2018-03-26T19:22:20.131Z,25.83
2018-03-26T19:24:49.801Z,22.47
2018-03-26T19:27:18.791Z,33.97
2018-03-26T19:29:48.620Z,30.97
2018-03-26T19:32:17.484Z,36.30
2018-03-26T19:34:46.646Z,33.30
2018-03-26T19:37:15.740Z,36.67
2018-03-26T19:39:45.676Z,30.37
2018-03-26T19:42:14.832Z,42.47
2018-03-26T19:44:43.759Z,30.87
2018-03-26T19:47:12.731Z,32.07
2018-03-26T19:49:42.099Z,38.07
2018-03-26T19:52:11.396Z,34.33
2018-03-26T19:54:41.111Z,30.03
2018-03-26T19:57:11.164Z,38.90
2018-03-26T19:59:40.329Z,31.47
2018-03-26T20:02:10.167Z,40.90
2018-03-26T20:04:39.198Z,42.30
2018-03-26T20:07:08.084Z,40.60
2018-03-26T20:09:36.962Z,41.57
2018-03-26T20:12:06.597Z,43.90
2018-03-26T20:14:36.241Z,61.60
2018-03-26T20:17:05.246Z,33.30
2018-03-26T20:19:34.429Z,31.17
2018-03-26T20:22:03.438Z,37.37
2018-03-26T20:24:32.184Z,32.17
2018-03-26T20:27:01.132Z,32.57
2018-03-26T20:29:30.091Z,37.53
2018-03-26T20:31:58.957Z,44.80
2018-03-26T20:34:27.810Z,38.27
2018-03-26T20:36:58.090Z,26.90
2018-03-26T20:39:28.271Z,36.07
2018-03-26T20:41:58.134Z,59.83
2018-03-26T20:44:27.109Z,58.47
2018-03-26T20:46:56.097Z,34.47
2018-03-26T20:49:25.138Z,28.90
2018-03-26T20:51:54.259Z,34.67
2018-03-26T20:54:23.140Z,31.83
2018-03-26T20:56:54.346Z,36.43
2018-03-26T20:59:23.276Z,39.97
2018-03-26T21:01:52.191Z,46.43
2018-03-26T21:04:21.098Z,40.57
2018-03-26T21:06:49.962Z,59.20
2018-03-26T21:09:19.072Z,64.97
2018-03-26T21:11:48.489Z,75.87
2018-03-26T21:14:17.345Z,56.03
2018-03-26T21:16:46.463Z,74.73
2018-03-26T21:19:15.363Z,92.03
2018-03-26T21:21:44.273Z,97.03
2018-03-26T21:24:13.167Z,150.23
2018-03-26T21:26:42.094Z,111.23
2018-03-26T21:29:11.876Z,119.33
2018-03-26T21:31:40.918Z,113.40
2018-03-26T21:34:10.060Z,68.70
2018-03-26T21:36:39.096Z,101.33
2018-03-26T21:39:08.796Z,68.33
2018-03-26T21:41:37.654Z,65.07
2018-03-26T21:44:06.463Z,91.97
2018-03-26T21:46:35.405Z,63.93
2018-03-26T21:49:04.969Z,103.70
2018-03-26T21:51:35.090Z,128.13
2018-03-26T21:54:04.211Z,112.17
2018-03-26T21:56:33.205Z,61.20
2018-03-26T21:59:01.993Z,66.07
2018-03-26T22:01:30.786Z,58.90
2018-03-26T22:03:59.565Z,58.57
2018-03-26T22:06:28.412Z,58.20
2018-03-26T22:08:57.209Z,60.57
2018-03-26T22:11:26.220Z,65.67
2018-03-26T22:13:54.998Z,50.83
2018-03-26T22:16:27.817Z,57.83
2018-03-26T22:18:56.957Z,62.10
2018-03-26T22:21:25.739Z,54.57
2018-03-26T22:23:55.301Z,51.83
2018-03-26T22:26:24.137Z,63.13
2018-03-26T22:28:53.745Z,62.23
2018-03-26T22:31:23.510Z,61.40
2018-03-26T22:33:52.604Z,71.53
2018-03-26T22:36:21.474Z,67.10
2018-03-26T22:38:50.573Z,79.73
2018-03-26T22:41:19.816Z,77.73
2018-03-26T22:43:49.457Z,80.47
2018-03-26T22:46:18.356Z,72.83
2018-03-26T22:48:47.438Z,76.17
2018-03-26T22:51:16.256Z,74.93
2018-03-26T22:53:45.235Z,70.67
2018-03-26T22:56:14.333Z,86.40
2018-03-26T22:58:43.277Z,89.13
2018-03-26T23:01:12.038Z,110.00
2018-03-26T23:03:40.862Z,101.97
2018-03-26T23:06:09.743Z,109.57
2018-03-26T23:08:38.579Z,82.37
2018-03-26T23:11:07.520Z,91.60
2018-03-26T23:13:36.505Z,78.97
2018-03-26T23:16:05.226Z,88.20
2018-03-26T23:18:34.018Z,110.43
2018-03-26T23:21:02.871Z,97.83
2018-03-26T23:23:32.473Z,102.63
2018-03-26T23:26:01.258Z,77.20
2018-03-26T23:28:30.866Z,99.97
2018-03-26T23:31:00.457Z,87.13
2018-03-26T23:33:29.292Z,79.73
2018-03-26T23:35:59.361Z,96.30
2018-03-26T23:38:28.229Z,91.33
2018-03-26T23:40:56.965Z,98.20
2018-03-26T23:43:25.809Z,86.60
2018-03-26T23:45:55.093Z,80.63
2018-03-26T23:48:23.927Z,99.67
2018-03-26T23:50:52.868Z,111.60
2018-03-26T23:53:21.686Z,101.27
2018-03-26T23:55:50.736Z,98.83
2018-03-26T23:58:19.737Z,121.50
